Terminal Aerodrome Forecast
Issued by NWS

Home | Current Version | Previous Version | Text Only | Print | Product List | Glossary On
Versions: 1 2 3 4 5 6 7 8 9 10 11 12 13 14 15 16 17 18 19 20 21 22 23
000
FTUS43 KGRB 251000 AAA
TAFCWA
TAF AMD
KCWA 251027Z 2510/2606 06012G18KT P6SM BKN020 OVC040
     FM251500 05011G17KT P6SM SCT018 SCT025
     FM252200 03007KT P6SM SCT200
      AMD LTD TO CLD VIS AND WIND TIL 251200=

USA.gov is the U.S. government's official web portal to all federal, state and local government web resources and services.